Airfield :
LOGIN :

Register | Disclaimer

   EN    FR    IT 

 










Legend :    VFR   Marginal VFR   IFR   Intensive IFR   Very Intensive IFR
Visi :
Ceiling :
>= 8 km
>= 3000ft
5 to 8 km
1000 to 3000 ft
1500m to 5 km
500 to 1000 ft
800 to 1500m
200 to 500 ft
< 800m
< 200 ft
Symbols :   Thunderstorms  Fog  Heavy snow  Heavy precipitations  Wind > 20 kt
SIGMETs :     Misc.  Thunderstorms  Icing  Turbulence  Mountain Waves  Volcanic Ashes






- Airport Elevation : 74 ft
- IATA code : EIN


EHEH - Eindhoven

CURRENT METAR :
  • 170731Z AUTO 13004KT 110V200 3900 BR FEW280 M00/M01 Q1012 GRN 12004KT 7000 NSC TEMPO 3000 BR MIFG

EXPIRED METARs :
  • 170725Z AUTO 13004KT 080V240 6000 BR FEW280 00/M01 Q1012 WHT 12004KT 7000 NSC
  • 170700Z AUTO VRB03KT 7000 BR FEW270 00/M00 Q1012 WHT 12004KT CAVOK
  • 170655Z AUTO VRB03KT 7000 BR BKN270 00/M00 Q1012 WHT 12004KT CAVOK
  • 170628Z AUTO 12004KT 090V190 8000 BR OVC280 01/M00 Q1012 BLU 12004KT 6000 NSC TEMPO 3500 BR MIFG
  • 170625Z AUTO 13004KT 120V210 7000 BR BKN290 01/00 Q1012 WHT VRB02KT 6000 NSC TEMPO 3500 BR MIFG
  • 170609Z AUTO 13005KT 100V190 9000 BR SCT340 01/M00 Q1012 BLU VRB02KT 6000 NSC TEMPO 3500 BR MIFG
  • 170559Z AUTO 13004KT 4400 BR BKN320 01/M00 Q1011 GRN VRB02KT 6000 NSC TEMPO 3500 BR MIFG
  • 170555Z AUTO 12003KT 100V160 5000 BR OVC320 01/00 Q1011 WHT VRB02KT 6000 NSC TEMPO 3500 BR MIFG
  • 170530Z AUTO VRB02KT 2600 R21/P3000N BR NCD 00/M00 Q1011 YLO VRB02KT 6000 NSC TEMPO 3500 BR MIFG
  • 170516Z AUTO VRB01KT 7000 BR SCT320 01/01 Q1011 WHT
  • 170505Z AUTO VRB01KT 8000 BR OVC320 01/01 Q1011 BLU
  • 170459Z AUTO VRB02KT 7000 BR BKN320/// 01/01 Q1011 WHT
  • 170455Z AUTO 14003KT 9000 BR SCT320 01/01 Q1011 BLU

TAF TAF EHEH
Valid from the 17 at 06:00 until the 18 at 12:00 UTC


170518Z 1706/1812 VRB02KT CAVOK
PROB40
TEMPO 1706/1708 2000 BR MIFG
BECMG 1709/1711 06004KT
BECMG 1715/1717 36008KT
BECMG 1720/1722 4500 -RA SCT010 OVC020
TEMPO 1721/1808 33008G18KT 2000 RADZ SCT005 OVC008
PROB40
TEMPO 1808/1812 1000 DZ SCT002 OVC005
BECMG 1809/1811 27007KT



MET'MAP, your aeronautical weather chart ! - Copyright ORBIFLY December 2007 - Disclaimer

ORBIFLY MET'MAP TEAM :

Programming & Development : Alexandra Zaïnal
Concept & Development : Baudouin d'Aumeries
Co-Development & Prog : Marc-Olivier Méhu
Technical & hardware support : Manuel Goepfert

Contact : metmap@orbifly.com




SOURCES & CREDITS :

   NOAA